YWLM/NTL METAR and TAF weather

Enter ICAO airport designator
Station Type Date Time Source
YWLM METAR 2024/07/13 03:00 UTC NOAA

YWLM 130300Z AUTO 21013KT 9999 // OVC041 17/08 Q1009 RF00.0/000.0


Station Type Date Time Source
YWLM Decoded METAR 2024/07/13 03:00 UTC NOAA

Station name not available
Jul 12, 2024 - 11:00 PM EDT / 2024.07.13 0300 UTC
Wind: from the SSW (210 degrees) at 15 MPH (13 KT):0
Visibility: greater than 7 mile(s):0
Sky conditions: overcast
Temperature: 62 F (17 C)
Dew Point: 46 F (8 C)
Relative Humidity: 55%
Pressure (altimeter): 29.80 in. Hg (1009 hPa)
ob: YWLM 130300Z AUTO 21013KT 9999 // OVC041 17/08 Q1009 RF00.0/000.0
cycle: 3

Station Type Date Time Source
YWLM TAF 2024/07/12 18:36 UTC NOAA